Time,TemperatureF,DewpointF,PressureIn,WindDirection,WindDirectionDegrees,WindSpeedMPH,WindSpeedGustMPH,Humidity,HourlyPrecipIn,Conditions,Clouds,dailyrainin,SoftwareType,DateUTC
2013-01-07 00:01:00,25.0,24.0,30.43,North,0,2.0,3.0,96,0.00,,---,0.00,VWS V14.00,2013-01-07 06:01:00,
2013-01-07 00:06:00,25.0,24.0,30.43,SW,225,1.0,2.0,96,0.00,,---,0.00,VWS V14.00,2013-01-07 06:06:00,
2013-01-07 00:11:00,25.0,23.8,30.43,SW,225,1.0,1.0,95,0.00,,---,0.00,VWS V14.00,2013-01-07 06:11:00,
2013-01-07 00:16:00,24.0,23.0,30.43,NNW,338,1.0,3.0,96,0.00,,---,0.00,VWS V14.00,2013-01-07 06:16:00,
2013-01-07 00:21:00,24.0,23.0,30.43,East,90,2.0,2.0,96,0.00,,---,0.00,VWS V14.00,2013-01-07 06:21:00,
2013-01-07 00:26:00,23.0,21.8,30.43,SE,135,2.0,3.0,95,0.00,,---,0.00,VWS V14.00,2013-01-07 06:26:00,
2013-01-07 00:31:00,22.0,20.8,30.43,East,90,3.0,3.0,95,0.00,,---,0.00,VWS V14.00,2013-01-07 06:31:00,
2013-01-07 00:36:00,22.0,21.0,30.43,ENE,68,3.0,3.0,96,0.00,,---,0.00,VWS V14.00,2013-01-07 06:36:00,
2013-01-07 00:41:00,23.0,22.3,30.43,NE,45,3.0,3.0,97,0.00,,---,0.00,VWS V14.00,2013-01-07 06:41:00,
2013-01-07 00:46:00,23.0,22.5,30.43,NNE,22,1.0,1.0,98,0.00,,---,0.00,VWS V14.00,2013-01-07 06:46:00,
2013-01-07 00:51:00,24.0,23.5,30.43,NE,45,3.0,5.0,98,0.00,,---,0.00,VWS V14.00,2013-01-07 06:51:00,
2013-01-07 00:56:00,24.0,23.5,30.43,NNE,22,3.0,5.0,98,0.00,,---,0.00,VWS V14.00,2013-01-07 06:56:00,
2013-01-07 01:01:00,23.0,22.5,30.43,NNE,22,4.0,5.0,98,0.00,,---,0.00,VWS V14.00,2013-01-07 07:01:00,
2013-01-07 01:06:00,23.0,22.5,30.43,NNW,338,3.0,4.0,98,0.00,,---,0.00,VWS V14.00,2013-01-07 07:06:00,
2013-01-07 01:11:00,24.0,23.5,30.43,NNE,22,3.0,5.0,98,0.00,,---,0.00,VWS V14.00,2013-01-07 07:11:00,
2013-01-07 01:16:00,24.0,23.5,30.43,NNE,22,2.0,3.0,98,0.00,,---,0.00,VWS V14.00,2013-01-07 07:16:00,
2013-01-07 01:21:00,24.0,23.5,30.43,ENE,68,1.0,4.0,98,0.00,,---,0.00,VWS V14.00,2013-01-07 07:21:00,
2013-01-07 01:26:00,24.0,23.5,30.43,NE,45,3.0,4.0,98,0.00,,---,0.00,VWS V14.00,2013-01-07 07:26:00,
2013-01-07 01:31:00,24.0,23.5,30.43,NE,45,4.0,5.0,98,0.00,,---,0.00,VWS V14.00,2013-01-07 07:31:00,
2013-01-07 01:36:00,24.0,23.5,30.44,NNE,22,5.0,5.0,98,0.00,,---,0.00,VWS V14.00,2013-01-07 07:36:00,
2013-01-07 01:41:00,24.0,23.5,30.44,NE,45,2.0,3.0,98,0.00,,---,0.00,VWS V14.00,2013-01-07 07:41:00,
2013-01-07 01:45:00,23.0,22.3,30.44,ENE,68,2.0,3.0,97,0.00,,---,0.00,VWS V14.00,2013-01-07 07:45:00,
2013-01-07 01:50:00,23.0,22.5,30.44,NE,45,3.0,3.0,98,0.00,,---,0.00,VWS V14.00,2013-01-07 07:50:00,
2013-01-07 01:55:00,24.0,23.5,30.44,ENE,68,3.0,3.0,98,0.00,,---,0.00,VWS V14.00,2013-01-07 07:55:00,
2013-01-07 02:00:00,24.0,23.8,30.44,NE,45,3.0,4.0,99,0.00,,---,0.00,VWS V14.00,2013-01-07 08:00:00,
2013-01-07 02:05:00,23.0,22.5,30.44,NNE,22,3.0,4.0,98,0.00,,---,0.00,VWS V14.00,2013-01-07 08:05:00,
2013-01-07 02:10:00,23.0,22.5,30.44,North,0,3.0,3.0,98,0.00,,---,0.00,VWS V14.00,2013-01-07 08:10:00,
2013-01-07 02:15:00,22.0,21.5,30.44,NNW,338,3.0,3.0,98,0.00,,---,0.00,VWS V14.00,2013-01-07 08:15:00,
2013-01-07 02:20:00,22.0,21.5,30.44,NNW,338,3.0,3.0,98,0.00,,---,0.00,VWS V14.00,2013-01-07 08:20:00,
2013-01-07 02:25:00,22.0,21.5,30.44,North,0,3.0,3.0,98,0.00,,---,0.00,VWS V14.00,2013-01-07 08:25:00,
2013-01-07 03:11:00,20.0,19.8,30.45,SSW,202,2.0,2.0,99,0.00,,---,0.00,VWS V14.00,2013-01-07 09:11:00,
2013-01-07 03:16:00,20.0,20.0,30.45,SSW,202,1.0,1.0,100,0.00,,---,0.00,VWS V14.00,2013-01-07 09:16:00,
2013-01-07 03:21:00,20.0,20.0,30.45,West,270,1.0,2.0,100,0.00,,---,0.00,VWS V14.00,2013-01-07 09:21:00,
2013-01-07 03:26:00,20.0,20.0,30.45,WNW,292,1.0,2.0,100,0.00,,---,0.00,VWS V14.00,2013-01-07 09:26:00,
2013-01-07 03:31:00,21.0,21.0,30.45,ENE,68,0.0,0.0,100,0.00,,---,0.00,VWS V14.00,2013-01-07 09:31:00,
2013-01-07 03:36:00,22.0,22.0,30.45,East,90,0.0,0.0,100,0.00,,---,0.00,VWS V14.00,2013-01-07 09:36:00,
2013-01-07 03:41:00,22.0,22.0,30.45,East,90,2.0,2.0,100,0.00,,---,0.00,VWS V14.00,2013-01-07 09:41:00,
2013-01-07 03:46:00,23.0,23.0,30.45,East,90,1.0,2.0,100,0.00,,---,0.00,VWS V14.00,2013-01-07 09:46:00,
2013-01-07 03:51:00,23.0,23.0,30.45,East,90,1.0,1.0,100,0.00,,---,0.00,VWS V14.00,2013-01-07 09:51:00,
2013-01-07 03:56:00,22.0,22.0,30.45,East,90,0.0,0.0,100,0.00,,---,0.00,VWS V14.00,2013-01-07 09:56:00,
2013-01-07 04:01:00,22.0,22.0,30.45,North,0,0.0,0.0,100,0.00,,---,0.00,VWS V14.00,2013-01-07 10:01:00,
2013-01-07 04:06:00,22.0,22.0,30.45,NNW,338,3.0,3.0,100,0.00,,---,0.00,VWS V14.00,2013-01-07 10:06:00,
2013-01-07 04:11:00,22.0,22.0,30.45,North,0,3.0,4.0,100,0.00,,---,0.00,VWS V14.00,2013-01-07 10:11:00,
2013-01-07 04:16:00,22.0,22.0,30.45,North,0,4.0,4.0,100,0.00,,---,0.00,VWS V14.00,2013-01-07 10:16:00,
2013-01-07 04:21:00,22.0,22.0,30.45,North,0,1.0,3.0,100,0.00,,---,0.00,VWS V14.00,2013-01-07 10:21:00,
2013-01-07 04:26:00,22.0,22.0,30.45,NNE,22,2.0,2.0,100,0.00,,---,0.00,VWS V14.00,2013-01-07 10:26:00,
2013-01-07 04:31:00,21.0,21.0,30.45,NE,45,0.0,0.0,100,0.00,,---,0.00,VWS V14.00,2013-01-07 10:31:00,
2013-01-07 04:36:00,20.0,20.0,30.45,South,180,0.0,0.0,100,0.00,,---,0.00,VWS V14.00,2013-01-07 10:36:00,
2013-01-07 04:41:00,20.0,20.0,30.45,WSW,248,0.0,0.0,100,0.00,,---,0.00,VWS V14.00,2013-01-07 10:41:00,
2013-01-07 04:46:00,20.0,20.0,30.45,NNW,338,1.0,1.0,100,0.00,,---,0.00,VWS V14.00,2013-01-07 10:46:00,
2013-01-07 04:51:00,20.0,20.0,30.45,SW,225,1.0,1.0,100,0.00,,---,0.00,VWS V14.00,2013-01-07 10:51:00,
2013-01-07 04:56:00,20.0,20.0,30.45,West,270,0.0,0.0,100,0.00,,---,0.00,VWS V14.00,2013-01-07 10:56:00,
2013-01-07 05:21:00,20.0,20.0,30.45,NE,45,2.0,3.0,100,0.00,,---,0.00,VWS V14.00,2013-01-07 11:21:00,
2013-01-07 05:26:00,20.0,20.0,30.45,NNW,338,0.0,0.0,100,0.00,,---,0.00,VWS V14.00,2013-01-07 11:26:00,
2013-01-07 05:31:00,20.0,20.0,30.45,NNW,338,3.0,3.0,100,0.00,,---,0.00,VWS V14.00,2013-01-07 11:31:00,
2013-01-07 05:42:00,19.0,19.0,30.45,NNW,338,4.0,5.0,100,0.00,,---,0.00,VWS V14.00,2013-01-07 11:42:00,
2013-01-07 05:47:00,19.0,19.0,30.45,North,0,3.0,5.0,100,0.00,,---,0.00,VWS V14.00,2013-01-07 11:47:00,
2013-01-07 05:52:00,19.0,19.0,30.46,NNE,22,3.0,3.0,100,0.00,,---,0.00,VWS V14.00,2013-01-07 11:52:00,
2013-01-07 05:57:00,20.0,20.0,30.46,NE,45,5.0,5.0,100,0.00,,---,0.00,VWS V14.00,2013-01-07 11:57:00,
2013-01-07 06:02:00,20.0,20.0,30.46,NNE,22,4.0,5.0,100,0.00,,---,0.00,VWS V14.00,2013-01-07 12:02:00,
2013-01-07 06:07:00,20.0,20.0,30.45,NE,45,5.0,5.0,100,0.00,,---,0.00,VWS V14.00,2013-01-07 12:07:00,
2013-01-07 06:12:00,20.0,20.0,30.45,NE,45,5.0,5.0,100,0.00,,---,0.00,VWS V14.00,2013-01-07 12:12:00,
2013-01-07 06:17:00,20.0,20.0,30.45,NE,45,5.0,6.0,100,0.00,,---,0.00,VWS V14.00,2013-01-07 12:17:00,
2013-01-07 06:22:00,20.0,20.0,30.46,NE,45,5.0,5.0,100,0.00,,---,0.00,VWS V14.00,2013-01-07 12:22:00,
2013-01-07 06:27:00,20.0,20.0,30.46,NE,45,5.0,5.0,100,0.00,,---,0.00,VWS V14.00,2013-01-07 12:27:00,
2013-01-07 06:32:00,21.0,21.0,30.46,NNE,22,3.0,4.0,100,0.00,,---,0.00,VWS V14.00,2013-01-07 12:32:00,
2013-01-07 06:37:00,20.0,20.0,30.46,NNE,22,4.0,5.0,100,0.00,,---,0.00,VWS V14.00,2013-01-07 12:37:00,
2013-01-07 06:42:00,20.0,20.0,30.46,NNE,22,3.0,5.0,100,0.00,,---,0.00,VWS V14.00,2013-01-07 12:42:00,
2013-01-07 06:47:00,20.0,20.0,30.46,NE,45,5.0,5.0,100,0.00,,---,0.00,VWS V14.00,2013-01-07 12:47:00,
2013-01-07 06:52:00,20.0,20.0,30.46,NE,45,5.0,5.0,100,0.00,,---,0.00,VWS V14.00,2013-01-07 12:52:00,
2013-01-07 06:57:00,21.0,21.0,30.46,NE,45,4.0,5.0,100,0.00,,---,0.00,VWS V14.00,2013-01-07 12:57:00,
2013-01-07 07:02:00,21.0,21.0,30.46,NE,45,4.0,5.0,100,0.00,,---,0.00,VWS V14.00,2013-01-07 13:02:00,
2013-01-07 07:07:00,21.0,21.0,30.46,NE,45,4.0,5.0,100,0.00,,---,0.00,VWS V14.00,2013-01-07 13:07:00,
2013-01-07 07:12:00,21.0,21.0,30.46,NE,45,3.0,5.0,100,0.00,,---,0.00,VWS V14.00,2013-01-07 13:12:00,
2013-01-07 07:17:00,21.0,21.0,30.47,NE,45,3.0,3.0,100,0.00,,---,0.00,VWS V14.00,2013-01-07 13:17:00,
2013-01-07 07:22:00,20.0,20.0,30.47,ENE,68,3.0,3.0,100,0.00,,---,0.00,VWS V14.00,2013-01-07 13:22:00,
2013-01-07 07:27:00,20.0,20.0,30.47,NE,45,1.0,2.0,100,0.00,,---,0.00,VWS V14.00,2013-01-07 13:27:00,
2013-01-07 07:32:00,20.0,20.0,30.47,ENE,68,1.0,1.0,100,0.00,,---,0.00,VWS V14.00,2013-01-07 13:32:00,
2013-01-07 07:37:00,19.0,19.0,30.47,ENE,68,3.0,3.0,100,0.00,,---,0.00,VWS V14.00,2013-01-07 13:37:00,
2013-01-07 07:42:00,20.0,20.0,30.47,ENE,68,3.0,4.0,100,0.00,,---,0.00,VWS V14.00,2013-01-07 13:42:00,
2013-01-07 07:47:00,21.0,21.0,30.47,ENE,68,3.0,3.0,100,0.00,,---,0.00,VWS V14.00,2013-01-07 13:47:00,
2013-01-07 07:52:00,21.0,21.0,30.47,ENE,68,2.0,3.0,100,0.00,,---,0.00,VWS V14.00,2013-01-07 13:52:00,
2013-01-07 07:57:00,22.0,22.0,30.47,East,90,1.0,2.0,100,0.00,,---,0.00,VWS V14.00,2013-01-07 13:57:00,
2013-01-07 08:02:00,22.0,22.0,30.47,ESE,112,0.0,1.0,100,0.00,,---,0.00,VWS V14.00,2013-01-07 14:02:00,
2013-01-07 08:07:00,22.0,22.0,30.47,NE,45,2.0,2.0,100,0.00,,---,0.00,VWS V14.00,2013-01-07 14:07:00,
2013-01-07 08:12:00,23.0,23.0,30.47,East,90,2.0,3.0,100,0.00,,---,0.00,VWS V14.00,2013-01-07 14:12:00,
2013-01-07 08:17:00,24.0,24.0,30.48,ESE,112,1.0,1.0,100,0.00,,---,0.00,VWS V14.00,2013-01-07 14:17:00,
2013-01-07 08:22:00,25.0,25.0,30.48,ESE,112,1.0,1.0,100,0.00,,---,0.00,VWS V14.00,2013-01-07 14:22:00,
2013-01-07 08:27:00,25.0,25.0,30.48,East,90,2.0,3.0,100,0.00,,---,0.00,VWS V14.00,2013-01-07 14:27:00,
2013-01-07 08:32:00,26.0,26.0,30.49,SSE,158,0.0,1.0,100,0.00,,---,0.00,VWS V14.00,2013-01-07 14:32:00,
2013-01-07 08:37:00,27.0,27.0,30.49,SE,135,0.0,0.0,100,0.00,,---,0.00,VWS V14.00,2013-01-07 14:37:00,
2013-01-07 08:42:00,27.0,26.5,30.49,SE,135,1.0,2.0,98,0.00,,---,0.00,VWS V14.00,2013-01-07 14:42:00,
2013-01-07 08:47:00,28.0,27.5,30.49,SE,135,3.0,4.0,98,0.00,,---,0.00,VWS V14.00,2013-01-07 14:47:00,
2013-01-07 08:51:00,28.0,27.3,30.49,SE,135,3.0,3.0,97,0.00,,---,0.00,VWS V14.00,2013-01-07 14:51:00,
2013-01-07 08:56:00,28.0,27.0,30.49,SE,135,3.0,3.0,96,0.00,,---,0.00,VWS V14.00,2013-01-07 14:56:00,
2013-01-07 09:02:00,28.0,26.8,30.50,South,180,2.0,3.0,95,0.00,,---,0.00,VWS V14.00,2013-01-07 15:02:00,
2013-01-07 09:07:00,28.0,26.8,30.50,SSE,158,3.0,3.0,95,0.00,,---,0.00,VWS V14.00,2013-01-07 15:07:00,
2013-01-07 09:12:00,29.0,27.8,30.50,SE,135,4.0,5.0,95,0.00,,---,0.00,VWS V14.00,2013-01-07 15:12:00,
2013-01-07 09:16:00,29.0,27.5,30.51,SE,135,4.0,5.0,94,0.00,,---,0.00,VWS V14.00,2013-01-07 15:16:00,
2013-01-07 09:21:00,29.0,27.2,30.51,ESE,112,5.0,5.0,93,0.00,,---,0.00,VWS V14.00,2013-01-07 15:21:00,
2013-01-07 09:26:00,29.0,27.0,30.51,ESE,112,5.0,6.0,92,0.00,,---,0.00,VWS V14.00,2013-01-07 15:26:00,
2013-01-07 09:31:00,30.0,27.7,30.51,ESE,112,6.0,6.0,91,0.00,,---,0.00,VWS V14.00,2013-01-07 15:31:00,
2013-01-07 09:36:00,30.0,27.4,30.51,SSE,158,5.0,5.0,90,0.00,,---,0.00,VWS V14.00,2013-01-07 15:36:00,
2013-01-07 09:41:00,30.0,27.2,30.51,SE,135,6.0,8.0,89,0.00,,---,0.00,VWS V14.00,2013-01-07 15:41:00,
2013-01-07 09:46:00,31.0,27.9,30.51,SE,135,6.0,6.0,88,0.00,,---,0.00,VWS V14.00,2013-01-07 15:46:00,
2013-01-07 09:51:00,31.0,27.9,30.50,ESE,112,7.0,9.0,88,0.00,,---,0.00,VWS V14.00,2013-01-07 15:51:00,
2013-01-07 09:56:00,31.0,27.6,30.50,SE,135,7.0,8.0,87,0.00,,---,0.00,VWS V14.00,2013-01-07 15:56:00,
2013-01-07 10:01:00,31.0,27.3,30.50,SE,135,10.0,11.0,86,0.00,,---,0.00,VWS V14.00,2013-01-07 16:01:00,
2013-01-07 10:06:00,31.0,27.3,30.50,SSE,158,6.0,9.0,86,0.00,,---,0.00,VWS V14.00,2013-01-07 16:06:00,
2013-01-07 10:11:00,31.0,27.3,30.49,ESE,112,6.0,8.0,86,0.00,,---,0.00,VWS V14.00,2013-01-07 16:11:00,
2013-01-07 10:16:00,32.0,28.0,30.49,SE,135,8.0,10.0,85,0.00,,---,0.00,VWS V14.00,2013-01-07 16:16:00,
2013-01-07 10:21:00,33.0,29.0,30.49,SE,135,9.0,10.0,85,0.00,,---,0.00,VWS V14.00,2013-01-07 16:21:00,
2013-01-07 10:26:00,33.0,28.7,30.48,ESE,112,5.0,7.0,84,0.00,,---,0.00,VWS V14.00,2013-01-07 16:26:00,
2013-01-07 10:31:00,33.0,28.1,30.48,ESE,112,6.0,10.0,82,0.00,,---,0.00,VWS V14.00,2013-01-07 16:31:00,
2013-01-07 10:36:00,33.0,27.8,30.48,SE,135,10.0,11.0,81,0.00,,---,0.00,VWS V14.00,2013-01-07 16:36:00,
2013-01-07 10:41:00,33.0,27.8,30.47,SE,135,9.0,11.0,81,0.00,,---,0.00,VWS V14.00,2013-01-07 16:41:00,
2013-01-07 10:46:00,33.0,27.5,30.47,SSE,158,9.0,9.0,80,0.00,,---,0.00,VWS V14.00,2013-01-07 16:46:00,
2013-01-07 10:51:00,33.0,27.5,30.46,SSE,158,9.0,11.0,80,0.00,,---,0.00,VWS V14.00,2013-01-07 16:51:00,
2013-01-07 10:56:00,34.0,28.5,30.46,SE,135,8.0,9.0,80,0.00,,---,0.00,VWS V14.00,2013-01-07 16:56:00,
2013-01-07 11:01:00,34.0,28.2,30.45,SE,135,8.0,10.0,79,0.00,,---,0.00,VWS V14.00,2013-01-07 17:01:00,
2013-01-07 11:06:00,34.0,28.5,30.45,SSE,158,9.0,11.0,80,0.00,,---,0.00,VWS V14.00,2013-01-07 17:06:00,
2013-01-07 11:11:00,34.0,28.2,30.44,SE,135,7.0,10.0,79,0.00,,---,0.00,VWS V14.00,2013-01-07 17:11:00,
2013-01-07 11:16:00,34.0,27.9,30.44,SE,135,8.0,10.0,78,0.00,,---,0.00,VWS V14.00,2013-01-07 17:16:00,
2013-01-07 11:21:00,34.0,27.9,30.44,SSE,158,4.0,5.0,78,0.00,,---,0.00,VWS V14.00,2013-01-07 17:21:00,
2013-01-07 11:26:00,35.0,28.9,30.43,SSE,158,8.0,8.0,78,0.00,,---,0.00,VWS V14.00,2013-01-07 17:26:00,
2013-01-07 11:31:00,35.0,29.2,30.43,SSE,158,7.0,9.0,79,0.00,,---,0.00,VWS V14.00,2013-01-07 17:31:00,
2013-01-07 11:36:00,36.0,29.5,30.42,South,180,6.0,7.0,77,0.00,,---,0.00,VWS V14.00,2013-01-07 17:36:00,
2013-01-07 11:41:00,35.0,28.2,30.42,SE,135,6.0,9.0,76,0.00,,---,0.00,VWS V14.00,2013-01-07 17:41:00,
2013-01-07 11:46:00,35.0,28.2,30.42,ESE,112,4.0,6.0,76,0.00,,---,0.00,VWS V14.00,2013-01-07 17:46:00,
2013-01-07 11:51:00,36.0,29.2,30.42,ESE,112,4.0,5.0,76,0.00,,---,0.00,VWS V14.00,2013-01-07 17:51:00,
2013-01-07 11:56:00,36.0,28.9,30.41,SE,135,6.0,8.0,75,0.00,,---,0.00,VWS V14.00,2013-01-07 17:56:00,
2013-01-07 12:01:00,36.0,28.9,30.41,SSE,158,8.0,9.0,75,0.00,,---,0.00,VWS V14.00,2013-01-07 18:01:00,
2013-01-07 12:06:00,37.0,30.1,30.40,SSE,158,5.0,5.0,76,0.00,,---,0.00,VWS V14.00,2013-01-07 18:06:00,
2013-01-07 12:11:00,37.0,29.2,30.40,South,180,6.0,7.0,73,0.00,,---,0.00,VWS V14.00,2013-01-07 18:11:00,
2013-01-07 12:16:00,37.0,28.8,30.39,South,180,6.0,8.0,72,0.00,,---,0.00,VWS V14.00,2013-01-07 18:16:00,
2013-01-07 12:21:00,37.0,29.2,30.39,SSE,158,8.0,8.0,73,0.00,,---,0.00,VWS V14.00,2013-01-07 18:21:00,
2013-01-07 12:26:00,37.0,29.5,30.38,ESE,112,6.0,7.0,74,0.00,,---,0.00,VWS V14.00,2013-01-07 18:26:00,
2013-01-07 12:31:00,38.0,30.1,30.38,ESE,112,7.0,7.0,73,0.00,,---,0.00,VWS V14.00,2013-01-07 18:31:00,
2013-01-07 12:36:00,38.0,30.1,30.38,SSE,158,5.0,6.0,73,0.00,,---,0.00,VWS V14.00,2013-01-07 18:36:00,
2013-01-07 12:41:00,38.0,30.1,30.38,SE,135,7.0,7.0,73,0.00,,---,0.00,VWS V14.00,2013-01-07 18:41:00,
2013-01-07 12:46:00,39.0,31.1,30.37,SE,135,5.0,6.0,73,0.00,,---,0.00,VWS V14.00,2013-01-07 18:46:00,
2013-01-07 12:51:00,39.0,30.8,30.37,ESE,112,5.0,8.0,72,0.00,,---,0.00,VWS V14.00,2013-01-07 18:51:00,
2013-01-07 12:56:00,38.0,29.5,30.37,SE,135,5.0,7.0,71,0.00,,---,0.00,VWS V14.00,2013-01-07 18:56:00,
2013-01-07 13:01:00,39.0,30.8,30.37,ESE,112,6.0,7.0,72,0.00,,---,0.00,VWS V14.00,2013-01-07 19:01:00,
2013-01-07 13:06:00,39.0,30.8,30.36,SE,135,6.0,7.0,72,0.00,,---,0.00,VWS V14.00,2013-01-07 19:06:00,
2013-01-07 13:11:00,40.0,31.0,30.36,SSE,158,6.0,8.0,70,0.00,,---,0.00,VWS V14.00,2013-01-07 19:11:00,
2013-01-07 13:16:00,40.0,30.7,30.36,SSE,158,5.0,5.0,69,0.00,,---,0.00,VWS V14.00,2013-01-07 19:16:00,
2013-01-07 13:21:00,40.0,30.7,30.36,SE,135,6.0,6.0,69,0.00,,---,0.00,VWS V14.00,2013-01-07 19:21:00,
2013-01-07 13:26:00,40.0,30.7,30.35,SE,135,6.0,8.0,69,0.00,,---,0.00,VWS V14.00,2013-01-07 19:26:00,
2013-01-07 13:31:00,40.0,30.7,30.34,SSE,158,8.0,10.0,69,0.00,,---,0.00,VWS V14.00,2013-01-07 19:31:00,
2013-01-07 13:36:00,40.0,30.3,30.34,SSE,158,8.0,10.0,68,0.00,,---,0.00,VWS V14.00,2013-01-07 19:36:00,
2013-01-07 13:41:00,41.0,31.3,30.34,ESE,112,6.0,7.0,68,0.00,,---,0.00,VWS V14.00,2013-01-07 19:41:00,
2013-01-07 13:46:00,41.0,30.9,30.33,East,90,8.0,9.0,67,0.00,,---,0.00,VWS V14.00,2013-01-07 19:46:00,
2013-01-07 13:51:00,41.0,31.3,30.33,ESE,112,6.0,8.0,68,0.00,,---,0.00,VWS V14.00,2013-01-07 19:51:00,
2013-01-07 13:56:00,41.0,30.9,30.34,SSE,158,10.0,11.0,67,0.00,,---,0.00,VWS V14.00,2013-01-07 19:56:00,
2013-01-07 14:01:00,41.0,30.1,30.33,SE,135,9.0,12.0,65,0.00,,---,0.00,VWS V14.00,2013-01-07 20:01:00,
2013-01-07 14:06:00,41.0,30.9,30.32,SE,135,10.0,10.0,67,0.00,,---,0.00,VWS V14.00,2013-01-07 20:06:00,
2013-01-07 14:11:00,42.0,31.5,30.32,ESE,112,6.0,8.0,66,0.00,,---,0.00,VWS V14.00,2013-01-07 20:11:00,
2013-01-07 14:16:00,41.0,30.5,30.32,ESE,112,9.0,10.0,66,0.00,,---,0.00,VWS V14.00,2013-01-07 20:16:00,
2013-01-07 14:19:00,42.0,31.5,30.32,SE,135,11.0,11.0,66,0.00,,---,0.00,VWS V14.00,2013-01-07 20:19:00,
2013-01-07 14:24:00,42.0,31.1,30.32,SE,135,9.0,11.0,65,0.00,,---,0.00,VWS V14.00,2013-01-07 20:24:00,
2013-01-07 14:29:00,42.0,30.7,30.32,SE,135,10.0,11.0,64,0.00,,---,0.00,VWS V14.00,2013-01-07 20:29:00,
2013-01-07 14:34:00,42.0,31.1,30.32,SE,135,8.0,10.0,65,0.00,,---,0.00,VWS V14.00,2013-01-07 20:34:00,
2013-01-07 14:39:00,42.0,30.7,30.32,SSE,158,5.0,9.0,64,0.00,,---,0.00,VWS V14.00,2013-01-07 20:39:00,
2013-01-07 14:44:00,42.0,30.7,30.31,East,90,6.0,8.0,64,0.00,,---,0.00,VWS V14.00,2013-01-07 20:44:00,
2013-01-07 14:49:00,42.0,29.9,30.31,SE,135,10.0,10.0,62,0.00,,---,0.00,VWS V14.00,2013-01-07 20:49:00,
2013-01-07 14:54:00,43.0,31.3,30.31,East,90,7.0,8.0,63,0.00,,---,0.00,VWS V14.00,2013-01-07 20:54:00,
2013-01-07 14:59:00,43.0,30.5,30.31,SE,135,7.0,10.0,61,0.00,,---,0.00,VWS V14.00,2013-01-07 20:59:00,
2013-01-07 15:04:00,43.0,30.5,30.31,SE,135,6.0,8.0,61,0.00,,---,0.00,VWS V14.00,2013-01-07 21:04:00,
2013-01-07 15:09:00,43.0,30.5,30.30,SE,135,5.0,8.0,61,0.00,,---,0.00,VWS V14.00,2013-01-07 21:09:00,
2013-01-07 15:14:00,43.0,30.9,30.31,SSE,158,5.0,7.0,62,0.00,,---,0.00,VWS V14.00,2013-01-07 21:14:00,
2013-01-07 15:19:00,43.0,30.5,30.30,SSE,158,7.0,9.0,61,0.00,,---,0.00,VWS V14.00,2013-01-07 21:19:00,
2013-01-07 15:24:00,43.0,30.9,30.30,ESE,112,5.0,5.0,62,0.00,,---,0.00,VWS V14.00,2013-01-07 21:24:00,
2013-01-07 15:29:00,43.0,30.5,30.30,ESE,112,5.0,9.0,61,0.00,,---,0.00,VWS V14.00,2013-01-07 21:29:00,
2013-01-07 15:34:00,43.0,30.1,30.30,ESE,112,6.0,8.0,60,0.00,,---,0.00,VWS V14.00,2013-01-07 21:34:00,
2013-01-07 15:39:00,43.0,30.1,30.29,ENE,68,5.0,10.0,60,0.00,,---,0.00,VWS V14.00,2013-01-07 21:39:00,
2013-01-07 15:44:00,43.0,30.5,30.29,SE,135,8.0,9.0,61,0.00,,---,0.00,VWS V14.00,2013-01-07 21:44:00,
2013-01-07 15:49:00,43.0,30.1,30.29,SE,135,5.0,10.0,60,0.00,,---,0.00,VWS V14.00,2013-01-07 21:49:00,
2013-01-07 15:54:00,43.0,30.1,30.29,SE,135,5.0,6.0,60,0.00,,---,0.00,VWS V14.00,2013-01-07 21:54:00,
2013-01-07 15:59:00,43.0,30.5,30.28,East,90,5.0,6.0,61,0.00,,---,0.00,VWS V14.00,2013-01-07 21:59:00,
2013-01-07 16:04:00,43.0,30.5,30.28,East,90,4.0,6.0,61,0.00,,---,0.00,VWS V14.00,2013-01-07 22:04:00,
2013-01-07 16:09:00,43.0,30.1,30.27,East,90,5.0,7.0,60,0.00,,---,0.00,VWS V14.00,2013-01-07 22:09:00,
2013-01-07 16:14:00,43.0,30.1,30.27,SE,135,7.0,8.0,60,0.00,,---,0.00,VWS V14.00,2013-01-07 22:14:00,
2013-01-07 16:19:00,43.0,30.5,30.27,East,90,5.0,8.0,61,0.00,,---,0.00,VWS V14.00,2013-01-07 22:19:00,
2013-01-07 16:24:00,42.0,29.5,30.26,ENE,68,4.0,7.0,61,0.00,,---,0.00,VWS V14.00,2013-01-07 22:24:00,
2013-01-07 16:29:00,42.0,29.5,30.26,ESE,112,3.0,6.0,61,0.00,,---,0.00,VWS V14.00,2013-01-07 22:29:00,
2013-01-07 16:34:00,42.0,29.9,30.26,ESE,112,3.0,6.0,62,0.00,,---,0.00,VWS V14.00,2013-01-07 22:34:00,
2013-01-07 16:39:00,42.0,29.9,30.26,East,90,5.0,7.0,62,0.00,,---,0.00,VWS V14.00,2013-01-07 22:39:00,
2013-01-07 16:44:00,41.0,29.0,30.26,SE,135,5.0,6.0,62,0.00,,---,0.00,VWS V14.00,2013-01-07 22:44:00,
2013-01-07 16:49:00,41.0,29.0,30.26,ESE,112,3.0,6.0,62,0.00,,---,0.00,VWS V14.00,2013-01-07 22:49:00,
2013-01-07 16:54:00,41.0,29.0,30.26,ESE,112,5.0,5.0,62,0.00,,---,0.00,VWS V14.00,2013-01-07 22:54:00,
2013-01-07 16:59:00,41.0,29.0,30.26,ESE,112,5.0,6.0,62,0.00,,---,0.00,VWS V14.00,2013-01-07 22:59:00,
2013-01-07 17:04:00,41.0,29.0,30.26,SE,135,3.0,5.0,62,0.00,,---,0.00,VWS V14.00,2013-01-07 23:04:00,
2013-01-07 17:09:00,41.0,29.0,30.26,ESE,112,3.0,3.0,62,0.00,,---,0.00,VWS V14.00,2013-01-07 23:09:00,
2013-01-07 17:14:00,41.0,29.0,30.26,SE,135,1.0,2.0,62,0.00,,---,0.00,VWS V14.00,2013-01-07 23:14:00,
2013-01-07 17:19:00,40.0,28.4,30.27,SE,135,2.0,3.0,63,0.00,,---,0.00,VWS V14.00,2013-01-07 23:19:00,
2013-01-07 17:24:00,40.0,28.4,30.27,South,180,0.0,0.0,63,0.00,,---,0.00,VWS V14.00,2013-01-07 23:24:00,
2013-01-07 17:29:00,40.0,28.8,30.28,West,270,1.0,1.0,64,0.00,,---,0.00,VWS V14.00,2013-01-07 23:29:00,
2013-01-07 17:34:00,39.0,27.9,30.28,WSW,248,3.0,3.0,64,0.00,,---,0.00,VWS V14.00,2013-01-07 23:34:00,
2013-01-07 17:39:00,39.0,28.2,30.29,WSW,248,3.0,3.0,65,0.00,,---,0.00,VWS V14.00,2013-01-07 23:39:00,
2013-01-07 17:44:00,39.0,28.2,30.29,West,270,3.0,3.0,65,0.00,,---,0.00,VWS V14.00,2013-01-07 23:44:00,
2013-01-07 17:49:00,38.0,27.7,30.29,West,270,5.0,5.0,66,0.00,,---,0.00,VWS V14.00,2013-01-07 23:49:00,
2013-01-07 17:54:00,38.0,28.4,30.29,WSW,248,3.0,3.0,68,0.00,,---,0.00,VWS V14.00,2013-01-07 23:54:00,
2013-01-07 17:59:00,38.0,28.4,30.29,West,270,3.0,3.0,68,0.00,,---,0.00,VWS V14.00,2013-01-07 23:59:00,
2013-01-07 18:04:00,37.0,27.8,30.30,WSW,248,3.0,3.0,69,0.00,,---,0.00,VWS V14.00,2013-01-08 00:04:00,
2013-01-07 18:09:00,37.0,28.1,30.30,SW,225,1.0,2.0,70,0.00,,---,0.00,VWS V14.00,2013-01-08 00:09:00,
2013-01-07 18:14:00,36.0,27.9,30.30,SSW,202,1.0,2.0,72,0.00,,---,0.00,VWS V14.00,2013-01-08 00:14:00,
2013-01-07 18:19:00,36.0,28.2,30.30,SSW,202,1.0,1.0,73,0.00,,---,0.00,VWS V14.00,2013-01-08 00:19:00,
2013-01-07 18:24:00,35.0,27.6,30.30,SSW,202,1.0,1.0,74,0.00,,---,0.00,VWS V14.00,2013-01-08 00:24:00,
2013-01-07 18:29:00,35.0,28.2,30.29,SSE,158,3.0,3.0,76,0.00,,---,0.00,VWS V14.00,2013-01-08 00:29:00,
2013-01-07 18:34:00,35.0,28.2,30.29,ESE,112,3.0,3.0,76,0.00,,---,0.00,VWS V14.00,2013-01-08 00:34:00,
2013-01-07 18:38:00,35.0,28.5,30.29,ESE,112,3.0,4.0,77,0.00,,---,0.00,VWS V14.00,2013-01-08 00:38:00,
2013-01-07 18:43:00,36.0,29.2,30.29,ESE,112,3.0,3.0,76,0.00,,---,0.00,VWS V14.00,2013-01-08 00:43:00,
2013-01-07 18:48:00,36.0,28.9,30.29,ESE,112,3.0,3.0,75,0.00,,---,0.00,VWS V14.00,2013-01-08 00:48:00,
2013-01-07 18:53:00,37.0,29.5,30.29,ESE,112,2.0,3.0,74,0.00,,---,0.00,VWS V14.00,2013-01-08 00:53:00,
2013-01-07 18:58:00,37.0,29.5,30.29,ESE,112,3.0,3.0,74,0.00,,---,0.00,VWS V14.00,2013-01-08 00:58:00,
2013-01-07 19:04:00,37.0,29.2,30.29,ESE,112,3.0,3.0,73,0.00,,---,0.00,VWS V14.00,2013-01-08 01:04:00,
2013-01-07 19:09:00,37.0,29.2,30.29,ESE,112,3.0,3.0,73,0.00,,---,0.00,VWS V14.00,2013-01-08 01:09:00,
2013-01-07 19:14:00,37.0,29.2,30.28,ESE,112,4.0,5.0,73,0.00,,---,0.00,VWS V14.00,2013-01-08 01:14:00,
2013-01-07 19:19:00,37.0,29.2,30.28,ESE,112,5.0,5.0,73,0.00,,---,0.00,VWS V14.00,2013-01-08 01:19:00,
2013-01-07 19:23:00,37.0,28.8,30.28,East,90,5.0,5.0,72,0.00,,---,0.00,VWS V14.00,2013-01-08 01:23:00,
2013-01-07 19:28:00,37.0,28.5,30.27,ESE,112,5.0,5.0,71,0.00,,---,0.00,VWS V14.00,2013-01-08 01:28:00,
2013-01-07 19:33:00,37.0,28.1,30.28,ESE,112,5.0,5.0,70,0.00,,---,0.00,VWS V14.00,2013-01-08 01:33:00,
2013-01-07 19:39:00,37.0,28.1,30.28,ESE,112,4.0,5.0,70,0.00,,---,0.00,VWS V14.00,2013-01-08 01:39:00,
2013-01-07 19:44:00,35.0,26.2,30.28,ESE,112,5.0,5.0,70,0.00,,---,0.00,VWS V14.00,2013-01-08 01:44:00,
2013-01-07 19:48:00,35.0,27.2,30.27,ESE,112,4.0,5.0,73,0.00,,---,0.00,VWS V14.00,2013-01-08 01:48:00,
2013-01-07 19:53:00,35.0,27.6,30.27,East,90,4.0,6.0,74,0.00,,---,0.00,VWS V14.00,2013-01-08 01:53:00,
2013-01-07 19:58:00,35.0,27.6,30.27,ESE,112,3.0,4.0,74,0.00,,---,0.00,VWS V14.00,2013-01-08 01:58:00,
2013-01-07 20:03:00,34.0,26.6,30.28,ESE,112,1.0,2.0,74,0.00,,---,0.00,VWS V14.00,2013-01-08 02:03:00,
2013-01-07 20:08:00,34.0,26.9,30.28,ESE,112,2.0,2.0,75,0.00,,---,0.00,VWS V14.00,2013-01-08 02:08:00,
2013-01-07 20:13:00,33.0,26.3,30.28,ESE,112,3.0,3.0,76,0.00,,---,0.00,VWS V14.00,2013-01-08 02:13:00,
2013-01-07 20:18:00,33.0,26.6,30.28,SSE,158,1.0,1.0,77,0.00,,---,0.00,VWS V14.00,2013-01-08 02:18:00,
2013-01-07 20:23:00,32.0,25.6,30.28,SE,135,1.0,1.0,77,0.00,,---,0.00,VWS V14.00,2013-01-08 02:23:00,
2013-01-07 20:28:00,32.0,26.2,30.28,ESE,112,1.0,2.0,79,0.00,,---,0.00,VWS V14.00,2013-01-08 02:28:00,
2013-01-07 20:33:00,31.0,25.6,30.27,NE,45,2.0,3.0,80,0.00,,---,0.00,VWS V14.00,2013-01-08 02:33:00,
2013-01-07 20:38:00,31.0,25.9,30.27,ESE,112,1.0,1.0,81,0.00,,---,0.00,VWS V14.00,2013-01-08 02:38:00,
2013-01-07 20:43:00,31.0,26.2,30.27,ENE,68,3.0,3.0,82,0.00,,---,0.00,VWS V14.00,2013-01-08 02:43:00,
2013-01-07 20:48:00,31.0,26.2,30.27,East,90,3.0,3.0,82,0.00,,---,0.00,VWS V14.00,2013-01-08 02:48:00,
2013-01-07 20:53:00,31.0,26.5,30.27,NNE,22,3.0,3.0,83,0.00,,---,0.00,VWS V14.00,2013-01-08 02:53:00,
2013-01-07 20:58:00,31.0,26.2,30.26,NE,45,3.0,3.0,82,0.00,,---,0.00,VWS V14.00,2013-01-08 02:58:00,
2013-01-07 21:03:00,31.0,26.2,30.26,East,90,3.0,4.0,82,0.00,,---,0.00,VWS V14.00,2013-01-08 03:03:00,
2013-01-07 21:08:00,31.0,26.2,30.26,East,90,3.0,4.0,82,0.00,,---,0.00,VWS V14.00,2013-01-08 03:08:00,
2013-01-07 21:13:00,31.0,25.9,30.26,SE,135,3.0,3.0,81,0.00,,---,0.00,VWS V14.00,2013-01-08 03:13:00,
2013-01-07 21:18:00,30.0,25.2,30.26,SE,135,2.0,3.0,82,0.00,,---,0.00,VWS V14.00,2013-01-08 03:18:00,
2013-01-07 21:23:00,28.0,23.8,30.26,SE,135,3.0,3.0,84,0.00,,---,0.00,VWS V14.00,2013-01-08 03:23:00,
2013-01-07 21:28:00,28.0,24.4,30.26,SSE,158,2.0,2.0,86,0.00,,---,0.00,VWS V14.00,2013-01-08 03:28:00,
2013-01-07 21:33:00,28.0,24.9,30.26,SE,135,2.0,3.0,88,0.00,,---,0.00,VWS V14.00,2013-01-08 03:33:00,
2013-01-07 21:38:00,30.0,27.2,30.26,SE,135,3.0,3.0,89,0.00,,---,0.00,VWS V14.00,2013-01-08 03:38:00,
2013-01-07 21:43:00,31.0,28.1,30.26,ESE,112,3.0,3.0,89,0.00,,---,0.00,VWS V14.00,2013-01-08 03:43:00,
2013-01-07 21:48:00,31.0,27.6,30.26,ESE,112,3.0,3.0,87,0.00,,---,0.00,VWS V14.00,2013-01-08 03:48:00,
2013-01-07 21:53:00,30.0,26.3,30.26,SE,135,1.0,2.0,86,0.00,,---,0.00,VWS V14.00,2013-01-08 03:53:00,
2013-01-07 21:58:00,29.0,25.4,30.26,SSE,158,3.0,3.0,86,0.00,,---,0.00,VWS V14.00,2013-01-08 03:58:00,
2013-01-07 22:03:00,29.0,25.6,30.26,SSE,158,1.0,1.0,87,0.00,,---,0.00,VWS V14.00,2013-01-08 04:03:00,
2013-01-07 22:08:00,29.0,25.9,30.26,SSE,158,0.0,0.0,88,0.00,,---,0.00,VWS V14.00,2013-01-08 04:08:00,
2013-01-07 22:13:00,29.0,25.9,30.26,SSE,158,0.0,0.0,88,0.00,,---,0.00,VWS V14.00,2013-01-08 04:13:00,
2013-01-07 22:18:00,29.0,25.9,30.26,SSE,158,0.0,0.0,88,0.00,,---,0.00,VWS V14.00,2013-01-08 04:18:00,
2013-01-07 22:23:00,29.0,25.9,30.26,SSE,158,0.0,0.0,88,0.00,,---,0.00,VWS V14.00,2013-01-08 04:23:00,
2013-01-07 22:28:00,29.0,26.2,30.26,SSE,158,1.0,1.0,89,0.00,,---,0.00,VWS V14.00,2013-01-08 04:28:00,
2013-01-07 22:33:00,29.0,26.2,30.26,SSE,158,1.0,1.0,89,0.00,,---,0.00,VWS V14.00,2013-01-08 04:33:00,
2013-01-07 22:38:00,29.0,26.2,30.26,SSE,158,2.0,2.0,89,0.00,,---,0.00,VWS V14.00,2013-01-08 04:38:00,
2013-01-07 22:43:00,29.0,26.2,30.26,SSE,158,3.0,3.0,89,0.00,,---,0.00,VWS V14.00,2013-01-08 04:43:00,
2013-01-07 22:48:00,30.0,27.2,30.26,SE,135,3.0,3.0,89,0.00,,---,0.00,VWS V14.00,2013-01-08 04:48:00,
2013-01-07 22:53:00,30.0,26.9,30.25,SE,135,3.0,4.0,88,0.00,,---,0.00,VWS V14.00,2013-01-08 04:53:00,
2013-01-07 22:58:00,31.0,27.9,30.25,SE,135,3.0,4.0,88,0.00,,---,0.00,VWS V14.00,2013-01-08 04:58:00,
2013-01-07 23:00:00,31.0,27.6,30.25,ESE,112,3.0,4.0,87,0.00,,---,0.00,VWS V14.00,2013-01-08 05:00:00,
2013-01-07 23:01:00,31.0,27.6,30.25,ESE,112,5.0,5.0,87,0.00,,---,0.00,VWS V14.00,2013-01-08 05:01:00,
2013-01-07 23:03:00,31.0,27.3,30.25,ESE,112,5.0,5.0,86,0.00,,---,0.00,VWS V14.00,2013-01-08 05:03:00,
2013-01-07 23:08:00,31.0,27.0,30.25,ESE,112,5.0,6.0,85,0.00,,---,0.00,VWS V14.00,2013-01-08 05:08:00,
2013-01-07 23:13:00,32.0,27.7,30.24,ESE,112,5.0,6.0,84,0.00,,---,0.00,VWS V14.00,2013-01-08 05:13:00,
2013-01-07 23:18:00,32.0,27.4,30.24,ESE,112,5.0,5.0,83,0.00,,---,0.00,VWS V14.00,2013-01-08 05:18:00,
2013-01-07 23:23:00,32.0,27.4,30.25,ESE,112,3.0,4.0,83,0.00,,---,0.00,VWS V14.00,2013-01-08 05:23:00,
2013-01-07 23:28:00,32.0,26.8,30.24,East,90,3.0,3.0,81,0.00,,---,0.00,VWS V14.00,2013-01-08 05:28:00,
2013-01-07 23:33:00,32.0,26.8,30.24,East,90,3.0,3.0,81,0.00,,---,0.00,VWS V14.00,2013-01-08 05:33:00,
2013-01-07 23:38:00,31.0,25.9,30.24,East,90,4.0,4.0,81,0.00,,---,0.00,VWS V14.00,2013-01-08 05:38:00,
2013-01-07 23:43:00,31.0,26.5,30.23,East,90,4.0,5.0,83,0.00,,---,0.00,VWS V14.00,2013-01-08 05:43:00,
2013-01-07 23:48:00,31.0,26.5,30.24,East,90,3.0,5.0,83,0.00,,---,0.00,VWS V14.00,2013-01-08 05:48:00,
2013-01-07 23:53:00,31.0,26.5,30.24,East,90,2.0,3.0,83,0.00,,---,0.00,VWS V14.00,2013-01-08 05:53:00,
2013-01-07 23:58:00,31.0,26.5,30.24,East,90,2.0,3.0,83,0.00,,---,0.00,VWS V14.00,2013-01-08 05:58:00,